Ko Sichang, Thailand

1:48 PM ICT on July 28, 2016 (GMT +0700)
The Weather Channel Thailand | | Change Station

Elev 131 ft 13.19 °N, 100.94 °E | Updated 7 seconds ago

Partly Cloudy
Partly Cloudy
90.0 °F
Feels Like 100 °F
N
2.9
Wind Variable Wind from SW
Gusts 4.9 mph

Today
High -- | Low -- °F
--% Chance of Precip.
Yesterday
High -- | Low -- °F
Precip. -- in
Pressure 29.68 in
Visibility 6.2 miles
Clouds Few 3000 ft
Heat Index 100 °F
Dew Point 74 °F
Humidity 60%
Rainfall 0.00 in
Snow Depth Not available.
6:01 AM 6:45 PM
Waning Crescent, 35% visible
METAR VTBS 280630Z 18010KT 150V210 9999 FEW030 33/22 Q1005 NOSIG
Pressure 29.68 in
Visibility 6.2 miles
Clouds Few 3000 ft
Heat Index 100 °F
Dew Point 74 °F
Humidity 60%
Rainfall 0.00 in
Snow Depth Not available.
6:01 AM 6:45 PM
Waning Crescent, 35% visible
METAR VTBS 280630Z 18010KT 150V210 9999 FEW030 33/22 Q1005 NOSIG

10-Day Weather Forecast

No radar image for this location.
×

Almanac

Astronomy

Jul. 28, 2016 Rise Set
Actual Time
Civil Twilight
Nautical Twilight
Astronomical Twilight
Moon
Length of Visible Light
Length of Day
Tomorrow will be .
, % of the Moon is Illuminated

Today's Extremes

Country Highs Country Lows

Community

WunderPhotos

Upload Photos

1,928,064 photos uploaded!

WunderBlog® & News

Nearby

Air Quality

  Air Quality AQ Index Pollutant
Not available.

Snow Depth

Station Depth Elevation

Earthquake Activity

City Distance Mag. Time & Date
Minimum magnitude displayed is 2.5.

Coastal Water Temperatures

Place Temperature

Stations

Nearby Weather Stations

Station Location Temp. Windchill Dew Point Humidity Wind Precip. Elev Updated Type